| time (UTC) | temp F | wind direction | speed MPH | gust MPH | rain 1hr in | rain 24hr in | rain mn in | humidity % | barometer mb |
| 20260506033028 | 68 | 179 | 2.0 | 5.0 | 0.00 | 0.00 | 0.00 | 76 | 1016.0 |
| 20260506031528 | 68 | 156 | 4.0 | 8.0 | 0.00 | 0.00 | 0.00 | 76 | 1015.7 |
| 20260506030033 | 68 | 183 | 2.0 | 6.0 | 0.00 | 0.00 | 0.00 | 76 | 1016.0 |
| 20260506024601 | 68 | 166 | 3.0 | 7.0 | 0.00 | 0.00 | 0.00 | 76 | 1016.0 |
| 20260506023000 | 68 | 182 | 3.0 | 6.0 | 0.00 | 0.00 | 0.00 | 76 | 1016.1 |
| 20260506021507 | 68 | 157 | 2.0 | 7.0 | 0.00 | 0.00 | 0.00 | 76 | 1016.1 |
| 20260506020013 | 68 | 192 | 3.0 | 8.0 | 0.00 | 0.00 | 0.00 | 76 | 1016.0 |
| 20260506014547 | 68 | 146 | 3.0 | 8.0 | 0.00 | 0.00 | 0.00 | 76 | 1015.8 |
| 20260506013044 | 68 | 146 | 3.0 | 7.0 | 0.00 | 0.00 | 0.00 | 76 | 1015.8 |
| 20260506011548 | 68 | 198 | 3.0 | 8.0 | 0.00 | 0.00 | 0.00 | 75 | 1015.5 |
| 20260506010052 | 68 | 157 | 4.0 | 8.0 | 0.00 | 0.00 | 0.00 | 75 | 1015.6 |
| 20260506004533 | 68 | 153 | 4.0 | 9.0 | 0.00 | 0.00 | 0.00 | 75 | 1015.4 |
| 20260506003023 | 68 | 158 | 4.0 | 8.0 | 0.00 | 0.00 | 0.00 | 74 | 1015.3 |
| 20260506001527 | 69 | 211 | 4.0 | 8.0 | 0.00 | 0.00 | 0.00 | 74 | 1015.4 |
| 20260506000040 | 69 | 171 | 2.0 | 9.0 | 0.00 | 0.00 | 0.00 | 74 | 1015.4 |
| 20260505234604 | 69 | 209 | 3.0 | 9.0 | 0.00 | 0.00 | 0.00 | 73 | 1015.5 |
| 20260505233003 | 70 | 169 | 5.0 | 9.0 | 0.00 | 0.00 | 0.00 | 71 | 1015.5 |
| 20260505231507 | 71 | 187 | 4.0 | 11.0 | 0.00 | 0.00 | 0.00 | 71 | 1015.5 |
| 20260505230015 | 71 | 196 | 4.0 | 11.0 | 0.00 | 0.00 | 0.00 | 70 | 1015.7 |
| 20260505224543 | 71 | 204 | 4.0 | 11.0 | 0.00 | 0.00 | 0.00 | 70 | 1015.4 |
| 20260505223054 | 72 | 178 | 5.0 | 14.0 | 0.00 | 0.00 | 0.00 | 69 | 1015.5 |
| 20260505221553 | 72 | 216 | 6.0 | 12.0 | 0.00 | 0.00 | 0.00 | 69 | 1015.6 |
| 20260505220055 | 72 | 159 | 4.0 | 13.0 | 0.00 | 0.00 | 0.00 | 68 | 1015.6 |
| 20260505214537 | 72 | 163 | 7.0 | 12.0 | 0.00 | 0.00 | 0.00 | 68 | 1015.4 |
| 20260505213040 | 72 | 163 | 7.0 | 13.0 | 0.00 | 0.00 | 0.00 | 70 | 1015.3 |
| 20260505211530 | 72 | 191 | 7.0 | 14.0 | 0.00 | 0.00 | 0.00 | 69 | 1015.3 |
| 20260505210033 | 73 | 202 | 8.0 | 14.0 | 0.00 | 0.00 | 0.00 | 67 | 1015.4 |
| 20260505204603 | 72 | 186 | 7.0 | 13.0 | 0.00 | 0.00 | 0.00 | 69 | 1015.5 |
| 20260505203004 | 73 | 157 | 9.0 | 15.0 | 0.00 | 0.00 | 0.00 | 67 | 1015.6 |
| 20260505201506 | 73 | 171 | 7.0 | 14.0 | 0.00 | 0.00 | 0.00 | 67 | 1015.7 |
| 20260505200011 | 73 | 154 | 7.0 | 15.0 | 0.00 | 0.00 | 0.00 | 67 | 1015.8 |
| 20260505194543 | 73 | 175 | 8.0 | 13.0 | 0.00 | 0.00 | 0.00 | 68 | 1016.1 |
| 20260505193050 | 73 | 174 | 7.0 | 13.0 | 0.00 | 0.00 | 0.00 | 69 | 1016.4 |
| 20260505191556 | 73 | 126 | 8.0 | 13.0 | 0.00 | 0.00 | 0.00 | 67 | 1016.6 |
| 20260505190111 | 73 | 183 | 5.0 | 11.0 | 0.00 | 0.00 | 0.00 | 68 | 1016.6 |
| 20260505184524 | 73 | 190 | 6.0 | 11.0 | 0.00 | 0.00 | 0.00 | 68 | 1016.6 |
| 20260505183041 | 73 | 190 | 7.0 | 13.0 | 0.00 | 0.00 | 0.00 | 66 | 1016.6 |
| 20260505181529 | 73 | 155 | 5.0 | 10.0 | 0.00 | 0.00 | 0.00 | 68 | 1016.8 |
| 20260505180038 | 73 | 184 | 6.0 | 9.0 | 0.00 | 0.00 | 0.00 | 65 | 1016.8 |
| 20260505174606 | 73 | 142 | 5.0 | 10.0 | 0.00 | 0.00 | 0.00 | 66 | 1016.8 |
| 20260505173003 | 73 | 184 | 6.0 | 11.0 | 0.00 | 0.00 | 0.00 | 64 | 1016.8 |
| 20260505171522 | 74 | 173 | 5.0 | 9.0 | 0.00 | 0.00 | 0.00 | 65 | 1016.7 |
| 20260505170014 | 73 | 132 | 6.0 | 11.0 | 0.00 | 0.00 | 0.00 | 65 | 1016.8 |
| 20260505164540 | 74 | 202 | 4.0 | 10.0 | 0.00 | 0.00 | 0.00 | 63 | 1016.8 |
| 20260505163044 | 74 | 194 | 5.0 | 9.0 | 0.00 | 0.00 | 0.00 | 62 | 1017.0 |
| 20260505161549 | 73 | 247 | 5.0 | 12.0 | 0.00 | 0.00 | 0.00 | 63 | 1017.2 |
| 20260505153028 | 73 | 202 | 4.0 | 10.0 | 0.00 | 0.00 | 0.00 | 64 | 1017.3 |
| 20260505151527 | 73 | 192 | 4.0 | 11.0 | 0.00 | 0.00 | 0.00 | 63 | 1017.3 |
| 20260505124515 | 69 | 185 | 4.0 | 9.0 | 0.00 | 0.00 | 0.00 | 70 | 1016.9 |
| 20260505123021 | 69 | 182 | 3.0 | 6.0 | 0.00 | 0.00 | 0.00 | 72 | 1016.9 |
| 20260505121524 | 67 | 173 | 2.0 | 6.0 | 0.00 | 0.00 | 0.00 | 75 | 1016.8 |
| 20260505120036 | 66 | 197 | 3.0 | 5.0 | 0.00 | 0.00 | 0.00 | 74 | 1016.8 |
| 20260505114601 | 65 | 216 | 0.0 | 0.0 | 0.00 | 0.00 | 0.00 | 71 | 1016.8 |
| 20260505113059 | 61 | 216 | 0.0 | 0.0 | 0.00 | 0.00 | 0.00 | 73 | 1016.6 |
| 20260505111604 | 60 | 215 | 0.0 | 1.0 | 0.00 | 0.00 | 0.00 | 74 | 1016.5 |
| 20260505101546 | 57 | 215 | 0.0 | 0.0 | 0.00 | 0.00 | 0.00 | 76 | 1015.7 |
| 20260505100046 | 57 | 215 | 0.0 | 1.0 | 0.00 | 0.00 | 0.00 | 76 | 1015.5 |
| 20260505094512 | 57 | 216 | 0.0 | 1.0 | 0.00 | 0.00 | 0.00 | 76 | 1015.3 |
| 20260505093017 | 58 | 215 | 0.0 | 0.0 | 0.00 | 0.00 | 0.00 | 76 | 1015.3 |
| 20260505091529 | 59 | 215 | 0.0 | 0.0 | 0.00 | 0.00 | 0.00 | 76 | 1015.3 |
| 20260505090041 | 60 | 216 | 0.0 | 1.0 | 0.00 | 0.00 | 0.00 | 77 | 1015.3 |
| 20260505084558 | 60 | 215 | 0.0 | 0.0 | 0.00 | 0.00 | 0.00 | 77 | 1015.1 |
| 20260505083109 | 62 | 215 | 0.0 | 1.0 | 0.00 | 0.00 | 0.00 | 77 | 1015.2 |
| 20260505081610 | 63 | 215 | 0.0 | 1.0 | 0.00 | 0.00 | 0.00 | 77 | 1015.1 |
| 20260505080004 | 64 | 225 | 0.0 | 2.0 | 0.00 | 0.00 | 0.00 | 76 | 1015.0 |
| 20260505074534 | 65 | 197 | 1.0 | 4.0 | 0.00 | 0.00 | 0.00 | 76 | 1014.9 |
| 20260505073051 | 65 | 228 | 2.0 | 6.0 | 0.00 | 0.00 | 0.00 | 75 | 1014.9 |
| 20260505071543 | 65 | 216 | 3.0 | 7.0 | 0.00 | 0.00 | 0.00 | 75 | 1014.8 |
| 20260505070053 | 65 | 211 | 2.0 | 7.0 | 0.00 | 0.00 | 0.00 | 75 | 1015.0 |
| 20260505064513 | 66 | 211 | 3.0 | 7.0 | 0.00 | 0.00 | 0.00 | 75 | 1015.0 |
| 20260505063017 | 66 | 197 | 3.0 | 7.0 | 0.00 | 0.00 | 0.00 | 74 | 1014.8 |
| 20260505061522 | 66 | 178 | 3.0 | 8.0 | 0.00 | 0.00 | 0.00 | 74 | 1015.1 |
| 20260505060027 | 66 | 194 | 4.0 | 10.0 | 0.00 | 0.00 | 0.00 | 74 | 1015.2 |
| 20260505054558 | 66 | 203 | 4.0 | 9.0 | 0.00 | 0.00 | 0.00 | 73 | 1015.2 |
| 20260505053107 | 66 | 190 | 5.0 | 9.0 | 0.00 | 0.00 | 0.00 | 73 | 1015.3 |
| 20260505051604 | 66 | 190 | 4.0 | 9.0 | 0.00 | 0.00 | 0.00 | 73 | 1015.3 |
| 20260505041553 | 66 | 188 | 4.0 | 13.0 | 0.00 | 0.00 | 0.00 | 71 | 1015.6 |
| 20260505040056 | 66 | 190 | 5.0 | 12.0 | 0.00 | 0.00 | 0.00 | 71 | 1015.6 |
| 20260505034514 | 66 | 204 | 5.0 | 11.0 | 0.00 | 0.00 | 0.00 | 70 | 1015.7 |